• Join FlightAware (Why Join?)
  • Login
  • US Flag 
Gobble Gobble! 
12:46PM EST


 

Airport Tracker/Info


-or-


 

Live Flight TrackerFlight Track Log ✈ CPZ5856 ✈ 11-Jul-2013 ✈ KATL - KMSN

Flight Track Log - Related Links

Times and Time Zones

All times are in EDT time to prevent confusion due to time zone crossing. See the CPZ5856 flight status page for this flight to view local times or setup timezone preferences in your user account.

Time Position Orientation Groundspeed Altitude Reporting Facility
EDT Latitude Longitude Course Direction KTS MPH feet Rate Location/Type
03:58PM 33.6667 -84.5000 323° Northwest 204 235 2,700  Level Atlanta TRACON
03:59PM 33.6833 -84.5667 287° West 275 316 5,000 2,640 Climbing Atlanta TRACON
04:00PM 33.9141 -84.2474 320° Northwest  Level FlightAware Approximate
04:00PM 33.7667 -84.5833 351° North 282 325 8,100  Level Atlanta TRACON
04:01PM 34.0044 -84.3376 320° Northwest  Level FlightAware Approximate
04:01PM 33.8808 -84.5842 360° North 295 339 10,900  Level Atlanta Center
04:02PM 34.0980 -84.4167 North  Level FlightAware Approximate
04:02PM 33.9808 -84.5875 358° North 331 381 13,200  Level Atlanta Center
04:03PM 34.1922 -84.5003 323° Northwest  Level FlightAware Approximate
04:03PM 34.0853 -84.5931 357° North 338 389 15,800  Level Atlanta Center
04:04PM 34.1853 -84.6239 346° North 355 409 17,700 1,080 Climbing Atlanta Center
04:05PM 34.2853 -84.6597 344° North 367 422 18,000 420 Climbing Atlanta Center
04:06PM 34.3853 -84.6933 344° North 367 422 18,600 1,200 Climbing Atlanta Center
04:07PM 34.4853 -84.7292 344° North 367 422 20,400 1,740 Climbing Atlanta Center
04:08PM 34.5894 -84.7656 344° North 381 438 22,100 1,380 Climbing Atlanta Center
04:09PM 34.6811 -84.8017 342° North 386 444 23,200 1,200 Climbing Atlanta Center
04:10PM 34.7933 -84.8431 343° North 397 457 24,500 1,320 Climbing Atlanta Center
04:11PM 34.9058 -84.8822 344° North 407 468 25,900 1,260 Climbing Atlanta Center
04:12PM 35.0225 -84.9239 344° North 423 487 27,100 1,140 Climbing Atlanta Center
04:13PM 35.1411 -84.9658 344° North 428 493 28,200 1,080 Climbing Atlanta Center
04:14PM 35.2533 -85.0078 343° North 428 493 29,300 1,080 Climbing Atlanta Center
04:15PM 35.3742 -85.0500 344° North 433 498 30,400 1,080 Climbing Atlanta Center
04:16PM 35.4906 -85.0922 344° North 433 498 31,500 1,140 Climbing Atlanta Center
04:17PM 35.6050 -85.1369 342° North 432 497 32,700 720 Climbing Atlanta Center
04:18PM 35.7256 -85.1797 344° North 432 497 33,000 120 Climbing Atlanta Center
04:19PM 35.8419 -85.2247 343° North 437 503 33,000 120 Level Atlanta Center
04:21PM 36.0747 -85.3036 345° North 428 493 33,500 300 Climbing Indianapolis Center
04:22PM 36.1889 -85.3467 343° North 426 490 34,000 240 Climbing Indianapolis Center
04:23PM 36.3033 -85.3886 344° North 427 491 34,000  Level Indianapolis Center
04:24PM 36.4172 -85.4308 343° North 425 489 34,000  Level Indianapolis Center
04:25PM 36.5547 -85.4833 343° North 431 496 34,000  Level Indianapolis Center
04:26PM 36.6717 -85.5269 343° North 434 499 34,000  Level Indianapolis Center
04:27PM 36.7975 -85.5614 348° North 454 522 34,000  Level Indianapolis Center
04:29PM 36.9233 -85.5783 354° North 457 526 34,000  Level Indianapolis Center
04:30PM 37.0394 -85.6111 347° North 439 505 34,000  Level Indianapolis Center
04:31PM 37.1553 -85.6578 342° North 435 501 34,000  Level Indianapolis Center
04:32PM 37.2900 -85.7114 342° North 437 503 34,000  Level Indianapolis Center
04:33PM 37.3917 -85.7514 343° North 441 507 34,000  Level Indianapolis Center
04:34PM 37.5319 -85.8075 342° North 440 506 34,000  Level Indianapolis Center
04:35PM 37.6492 -85.8525 343° North 438 504 34,000  Level Indianapolis Center
04:36PM 37.7647 -85.9003 342° North 437 503 34,000  Level Indianapolis Center
04:37PM 37.8786 -85.9461 342° North 433 498 34,000  Level Indianapolis Center
04:38PM 37.9936 -85.9919 343° North 432 497 34,000  Level Indianapolis Center
04:39PM 38.1072 -86.0394 342° North 431 496 34,000  Level Indianapolis Center
04:40PM 38.2456 -86.0950 342° North 434 499 34,000  Level Indianapolis Center
04:41PM 38.3597 -86.1406 343° North 433 498 34,000  Level Indianapolis Center
04:42PM 38.4736 -86.1881 342° North 431 496 34,000  Level Indianapolis Center
04:43PM 38.5794 -86.2494 336° Northwest 420 483 34,000  Level Indianapolis Center
04:44PM 38.6814 -86.3147 333° Northwest 412 474 34,000  Level Indianapolis Center
04:45PM 38.7842 -86.3781 334° Northwest 410 472 34,000  Level Indianapolis Center
04:46PM 38.9036 -86.4542 334° Northwest 411 473 34,000  Level Indianapolis Center
04:47PM 39.0042 -86.5186 334° Northwest 407 468 34,000  Level Indianapolis Center
04:48PM 39.1056 -86.5822 334° Northwest 404 465 34,000  Level Indianapolis Center
04:49PM 39.2067 -86.6483 333° Northwest 406 467 34,000  Level Indianapolis Center
04:50PM 39.3075 -86.7128 334° Northwest 405 466 34,000  Level Indianapolis Center
04:51PM 39.4283 -86.7897 334° Northwest 402 463 34,000  Level Indianapolis Center
04:52PM 39.5289 -86.8544 334° Northwest 402 463 34,000  Level Indianapolis Center
04:53PM 39.6281 -86.9186 334° Northwest 398 458 34,000  Level Indianapolis Center
04:54PM 39.7267 -86.9822 334° Northwest 396 456 34,000  Level Indianapolis Center
04:55PM 39.8250 -87.0469 333° Northwest 395 455 34,000  Level Indianapolis Center
04:56PM 39.9231 -87.1117 333° Northwest 393 452 34,000  Level Indianapolis Center
04:57PM 40.0211 -87.1750 334° Northwest 393 452 34,000  Level Indianapolis Center
04:59PM 40.1381 -87.2522 333° Northwest 392 451 34,000  Level Indianapolis Center
04:59PM 40.1961 -87.2911 333° Northwest 391 450 34,000  Level Chicago Center
05:00PM 40.2914 -87.3550 333° Northwest 387 445 34,000  Level Chicago Center
05:01PM 40.3869 -87.4178 333° Northwest 384 442 34,000  Level Chicago Center
05:02PM 40.4808 -87.4806 333° Northwest 385 443 34,000  Level Chicago Center
05:03PM 40.5947 -87.5572 333° Northwest 384 442 34,000  Level Chicago Center
05:04PM 40.6906 -87.6192 334° Northwest 384 442 34,000  Level Chicago Center
05:05PM 40.7856 -87.6850 332° Northwest 385 443 34,000  Level Chicago Center
05:06PM 40.8800 -87.7483 333° Northwest 382 440 34,000  Level Chicago Center
05:07PM 40.9756 -87.8119 333° Northwest 385 443 34,000  Level Chicago Center
05:08PM 41.0878 -87.8889 333° Northwest 382 440 34,000  Level Chicago Center
05:10PM 41.1822 -87.9539 333° Northwest 383 441 34,000  Level Chicago Center
05:11PM 41.2758 -88.0186 333° Northwest 381 438 34,000  Level Chicago Center
05:12PM 41.3825 -88.0914 333° Northwest 387 445 34,000 -120 Level Chicago Center
05:13PM 41.4775 -88.1553 333° Northwest 389 448 33,800 -540 Descending Chicago Center
05:14PM 41.5700 -88.2197 332° Northwest 389 448 33,000 -480 Descending Chicago Center
05:15PM 41.6653 -88.2861 333° Northwest 387 445 32,900 -540 Descending Chicago Center
05:16PM 41.7817 -88.3669 333° Northwest 394 453 32,000 -720 Descending Chicago Center
05:17PM 41.8808 -88.4361 333° Northwest 400 460 31,500 -1,500 Descending Chicago Center
05:18PM 41.9800 -88.5072 332° Northwest 405 466 28,900 -2,520 Descending Chicago Center
05:19PM 42.0775 -88.5733 333° Northwest 398 458 26,300 -2,400 Descending Chicago Center
05:20PM 42.1703 -88.6408 332° Northwest 384 442 24,000 -1,140 Descending Chicago Center
05:21PM 42.2817 -88.7194 332° Northwest 381 438 24,000 -1,080 Level Chicago Center
05:22PM 42.3758 -88.7886 332° Northwest 378 435 21,800 -1,980 Descending Chicago Center
05:23PM 42.4656 -88.8528 332° Northwest 365 420 20,000 -900 Descending Chicago Center
05:24PM 42.5653 -88.8742 351° North 361 415 20,000 -1,260 Level Chicago Center
05:25PM 42.6628 -88.8928 352° North 354 407 17,500 -2,520 Descending Chicago Center
05:26PM 42.7481 -88.9569 331° Northwest 351 404 14,800 -2,820 Descending Chicago Center
05:27PM 42.8264 -89.0328 325° Northwest 343 395 11,700 -2,400 Descending Chicago Center
05:28PM 42.9039 -89.1069 325° Northwest 290 334 9,900 -2,040 Descending Chicago Center
05:29PM 42.9606 -89.1772 318° Northwest 277 319 7,500 -2,400 Descending Chicago Center
05:30PM 42.9592 -89.2831 269° West 279 321 4,900 -1,860 Descending Chicago Center
05:31PM 42.9836 -89.3642 292° West 275 316 3,700 -1,200 Descending Chicago Center